UTDT

Qurghonteppa International Airport

Kurgan-Tyube, Tajikistan
TAF UTDT 251500Z 2516/2601 VRB02MPS 5000 BR SCT030CB BKN080 TEMPO 2516/2522 18008G13MPS 3100 -TSRA BR
Issued Valid From Valid To
Apr-25 @ 15:00 UTC
(3 hours ago)
Apr-25 @ 16:00 UTC
(2 hours ago)
Apr-26 @ 01:00 UTC
(in 7 hours)
Apr-25 @ 16:00 to Apr-26 @ 01:00
TAF UTDT 251500Z 2516/2601 VRB02MPS 5000 BR SCT030CB BKN080
Wind Visibility Clouds Conditions
Variable at 4 knots 5,005 meters
  • Scattered at 3,000' AGL
  • Broken at 8,000' AGL
  • Mist
Temporary Apr-25 @ 16:00 to Apr-25 @ 22:00
TEMPO 2516/2522 18008G13MPS 3100 -TSRA BR
Wind Visibility Conditions
180° at 16 knots
 Gusting to 25 knots
3,106 meters
  • Light Thunderstorm
  • Light Rain
  • Mist
TAF UTDT 251500Z 2516/2601 VRB02MPS 5000 BR SCT030CB BKN080 TEMPO 2516/2522 18008G13MPS 3100 -TSRA BR
Issued Apr-25 @ 15:00 UTC
(3 hours ago)
Valid From Apr-25 @ 16:00 UTC
(2 hours ago)
Valid To Apr-26 @ 01:00 UTC
(in 7 hours)
Apr-25 @ 16:00 - Apr-26 @ 01:00
Wind Visibility
Variable at 4 knots 5,005 meters
Clouds
  • Scattered at 3,000' AGL
  • Broken at 8,000' AGL
Conditions
  • Mist
Temporary Apr-25 @ 16:00 - Apr-25 @ 22:00
Wind Visibility
180° at 16 knots
 Gusting to 25 knots
3,106 meters
Conditions
  • Light Thunderstorm
  • Light Rain
  • Mist